createdAt,value
2022-11-05T00:19:36.808Z,4.38
2022-11-05T00:39:39.012Z,6.72
2022-11-05T00:59:40.946Z,6.50
2022-11-05T01:19:43.002Z,3.85
2022-11-05T01:39:44.763Z,2.72
2022-11-05T01:59:46.882Z,3.15
2022-11-05T02:19:48.510Z,5.82
2022-11-05T02:39:50.788Z,3.88
2022-11-05T02:59:52.187Z,1.73
2022-11-05T03:19:54.794Z,2.00
2022-11-05T03:39:56.441Z,2.15
2022-11-05T03:59:59.069Z,3.50
2022-11-05T04:20:00.808Z,1.60
2022-11-05T04:40:02.702Z,1.60
2022-11-05T05:00:07.872Z,2.28
2022-11-05T05:20:12.184Z,3.35
2022-11-05T05:40:14.054Z,2.53
2022-11-05T06:00:16.078Z,4.80
2022-11-05T06:20:17.564Z,3.38
2022-11-05T06:40:20.035Z,3.22
2022-11-05T07:00:21.642Z,6.10
2022-11-05T07:20:23.767Z,4.18
2022-11-05T07:40:25.337Z,4.40
2022-11-05T08:00:27.706Z,6.18
2022-11-05T08:20:29.396Z,4.80
2022-11-05T08:40:31.814Z,6.18
2022-11-05T09:00:33.233Z,6.00
2022-11-05T09:20:35.338Z,5.60
2022-11-05T09:40:36.965Z,7.13
2022-11-05T10:00:39.428Z,6.68
2022-11-05T10:20:41.082Z,7.60
2022-11-05T10:40:43.117Z,6.70
2022-11-05T11:00:45.079Z,7.35
2022-11-05T11:20:47.254Z,5.75
2022-11-05T11:40:48.870Z,5.93
2022-11-05T12:00:51.331Z,5.72
2022-11-05T12:20:57.944Z,5.18
2022-11-05T12:41:00.769Z,5.45
2022-11-05T13:01:02.794Z,4.38
2022-11-05T13:21:05.166Z,3.50
2022-11-05T13:41:06.962Z,5.57
2022-11-05T14:01:09.465Z,4.40
2022-11-05T14:21:11.053Z,4.93
2022-11-05T14:41:12.933Z,4.22
2022-11-05T15:01:14.406Z,5.72
2022-11-05T15:21:16.833Z,7.57
2022-11-05T15:41:18.399Z,5.57
2022-11-05T16:01:20.651Z,5.80
2022-11-05T16:21:22.169Z,5.60
2022-11-05T16:41:24.619Z,4.45
2022-11-05T17:01:26.336Z,5.97
2022-11-05T17:21:28.372Z,4.60
2022-11-05T17:41:30.200Z,4.53
2022-11-05T18:01:32.177Z,5.60
2022-11-05T18:21:33.662Z,4.28
2022-11-05T18:41:36.117Z,7.30
2022-11-05T19:01:37.898Z,5.85
2022-11-05T19:21:42.399Z,7.40
2022-11-05T19:41:44.456Z,6.43
2022-11-05T20:01:46.862Z,6.15
2022-11-05T20:21:48.638Z,6.82
2022-11-05T20:41:50.822Z,7.30
2022-11-05T21:01:52.744Z,10.93
2022-11-05T21:21:55.010Z,9.35
2022-11-05T21:41:56.854Z,11.23
2022-11-05T22:01:59.109Z,10.10
2022-11-05T22:22:01.075Z,11.45
2022-11-05T22:42:08.205Z,10.55
2022-11-05T23:02:10.529Z,13.63
2022-11-05T23:22:12.937Z,12.50
2022-11-05T23:42:14.966Z,12.93
